sensor_id;sensor_type;location;lat;lon;timestamp;P1;durP1;ratioP1;P2;durP2;ratioP2
29200;SDS011;16244;51.956;12.980;2024-02-15T00:02:23;2.43;;;2.40;;
29200;SDS011;16244;51.956;12.980;2024-02-15T00:04:50;4.87;;;3.03;;
29200;SDS011;16244;51.956;12.980;2024-02-15T00:07:18;3.30;;;3.10;;
29200;SDS011;16244;51.956;12.980;2024-02-15T00:09:49;3.83;;;3.67;;
29200;SDS011;16244;51.956;12.980;2024-02-15T00:12:17;3.20;;;3.10;;
29200;SDS011;16244;51.956;12.980;2024-02-15T00:14:44;3.23;;;3.23;;
29200;SDS011;16244;51.956;12.980;2024-02-15T00:17:12;3.57;;;3.37;;
29200;SDS011;16244;51.956;12.980;2024-02-15T00:19:39;3.63;;;3.53;;
29200;SDS011;16244;51.956;12.980;2024-02-15T00:22:07;4.30;;;3.50;;
29200;SDS011;16244;51.956;12.980;2024-02-15T00:24:36;4.07;;;3.97;;
29200;SDS011;16244;51.956;12.980;2024-02-15T00:27:06;3.87;;;3.77;;
29200;SDS011;16244;51.956;12.980;2024-02-15T00:29:33;4.17;;;4.07;;
29200;SDS011;16244;51.956;12.980;2024-02-15T00:32:01;3.70;;;3.50;;
29200;SDS011;16244;51.956;12.980;2024-02-15T00:34:29;5.57;;;5.27;;
29200;SDS011;16244;51.956;12.980;2024-02-15T00:36:56;4.17;;;3.97;;
29200;SDS011;16244;51.956;12.980;2024-02-15T00:39:24;4.57;;;4.37;;
29200;SDS011;16244;51.956;12.980;2024-02-15T00:41:52;5.17;;;4.97;;
29200;SDS011;16244;51.956;12.980;2024-02-15T00:44:22;3.83;;;3.73;;
29200;SDS011;16244;51.956;12.980;2024-02-15T00:46:50;5.23;;;5.03;;
29200;SDS011;16244;51.956;12.980;2024-02-15T00:49:17;5.53;;;5.27;;
29200;SDS011;16244;51.956;12.980;2024-02-15T00:51:46;5.63;;;5.30;;
29200;SDS011;16244;51.956;12.980;2024-02-15T00:54:14;5.10;;;4.77;;
29200;SDS011;16244;51.956;12.980;2024-02-15T00:56:42;5.77;;;5.57;;
29200;SDS011;16244;51.956;12.980;2024-02-15T00:59:10;4.70;;;4.53;;
29200;SDS011;16244;51.956;12.980;2024-02-15T01:01:39;5.10;;;4.80;;
29200;SDS011;16244;51.956;12.980;2024-02-15T01:04:06;4.80;;;4.60;;
29200;SDS011;16244;51.956;12.980;2024-02-15T01:06:34;5.60;;;5.30;;
29200;SDS011;16244;51.956;12.980;2024-02-15T01:09:01;4.63;;;4.43;;
29200;SDS011;16244;51.956;12.980;2024-02-15T01:11:29;5.60;;;5.30;;
29200;SDS011;16244;51.956;12.980;2024-02-15T01:13:58;6.50;;;6.00;;
29200;SDS011;16244;51.956;12.980;2024-02-15T01:16:25;5.40;;;5.20;;
29200;SDS011;16244;51.956;12.980;2024-02-15T01:18:54;4.63;;;4.53;;
29200;SDS011;16244;51.956;12.980;2024-02-15T01:21:22;5.73;;;5.33;;
29200;SDS011;16244;51.956;12.980;2024-02-15T01:23:49;5.67;;;5.43;;
29200;SDS011;16244;51.956;12.980;2024-02-15T01:26:24;5.17;;;4.97;;
29200;SDS011;16244;51.956;12.980;2024-02-15T01:28:51;5.20;;;4.80;;
29200;SDS011;16244;51.956;12.980;2024-02-15T01:31:19;6.57;;;5.80;;
29200;SDS011;16244;51.956;12.980;2024-02-15T01:33:47;6.30;;;5.90;;
29200;SDS011;16244;51.956;12.980;2024-02-15T01:36:16;7.87;;;7.17;;
29200;SDS011;16244;51.956;12.980;2024-02-15T01:38:44;6.33;;;6.00;;
29200;SDS011;16244;51.956;12.980;2024-02-15T01:41:12;7.50;;;6.80;;
29200;SDS011;16244;51.956;12.980;2024-02-15T01:43:43;6.60;;;6.13;;
29200;SDS011;16244;51.956;12.980;2024-02-15T01:46:11;6.97;;;6.47;;
29200;SDS011;16244;51.956;12.980;2024-02-15T01:48:40;6.27;;;5.80;;
29200;SDS011;16244;51.956;12.980;2024-02-15T01:51:07;6.77;;;6.20;;
29200;SDS011;16244;51.956;12.980;2024-02-15T01:53:38;7.30;;;6.70;;
29200;SDS011;16244;51.956;12.980;2024-02-15T01:56:07;7.03;;;6.40;;
29200;SDS011;16244;51.956;12.980;2024-02-15T01:58:34;6.90;;;6.50;;
29200;SDS011;16244;51.956;12.980;2024-02-15T02:01:02;6.70;;;6.10;;
29200;SDS011;16244;51.956;12.980;2024-02-15T02:03:31;7.40;;;6.40;;
29200;SDS011;16244;51.956;12.980;2024-02-15T02:05:58;7.03;;;6.53;;
29200;SDS011;16244;51.956;12.980;2024-02-15T02:08:27;7.53;;;7.00;;
29200;SDS011;16244;51.956;12.980;2024-02-15T02:10:56;6.37;;;5.97;;
29200;SDS011;16244;51.956;12.980;2024-02-15T02:13:24;7.20;;;6.50;;
29200;SDS011;16244;51.956;12.980;2024-02-15T02:15:51;7.73;;;7.00;;
29200;SDS011;16244;51.956;12.980;2024-02-15T02:18:18;7.13;;;6.53;;
29200;SDS011;16244;51.956;12.980;2024-02-15T02:20:46;8.80;;;7.27;;
29200;SDS011;16244;51.956;12.980;2024-02-15T02:23:14;22.90;;;7.00;;
29200;SDS011;16244;51.956;12.980;2024-02-15T02:25:45;8.33;;;7.53;;
29200;SDS011;16244;51.956;12.980;2024-02-15T02:28:15;6.60;;;5.97;;
29200;SDS011;16244;51.956;12.980;2024-02-15T02:30:43;6.70;;;6.10;;
29200;SDS011;16244;51.956;12.980;2024-02-15T02:33:11;11.43;;;7.40;;
29200;SDS011;16244;51.956;12.980;2024-02-15T02:35:44;7.53;;;6.97;;
29200;SDS011;16244;51.956;12.980;2024-02-15T02:38:12;7.40;;;6.70;;
29200;SDS011;16244;51.956;12.980;2024-02-15T02:40:40;6.90;;;6.40;;
29200;SDS011;16244;51.956;12.980;2024-02-15T02:43:09;7.40;;;6.80;;
29200;SDS011;16244;51.956;12.980;2024-02-15T02:45:36;8.03;;;6.30;;
29200;SDS011;16244;51.956;12.980;2024-02-15T02:48:04;7.30;;;6.70;;
29200;SDS011;16244;51.956;12.980;2024-02-15T02:50:32;7.60;;;6.90;;
29200;SDS011;16244;51.956;12.980;2024-02-15T02:53:00;6.90;;;6.43;;
29200;SDS011;16244;51.956;12.980;2024-02-15T02:55:27;7.53;;;6.87;;
29200;SDS011;16244;51.956;12.980;2024-02-15T02:57:55;9.97;;;7.43;;
29200;SDS011;16244;51.956;12.980;2024-02-15T03:00:24;8.57;;;7.80;;
29200;SDS011;16244;51.956;12.980;2024-02-15T03:02:53;7.47;;;6.87;;
29200;SDS011;16244;51.956;12.980;2024-02-15T03:05:22;7.77;;;6.97;;
29200;SDS011;16244;51.956;12.980;2024-02-15T03:07:51;8.47;;;6.33;;
29200;SDS011;16244;51.956;12.980;2024-02-15T03:10:18;7.00;;;6.40;;
29200;SDS011;16244;51.956;12.980;2024-02-15T03:12:46;8.30;;;7.50;;
29200;SDS011;16244;51.956;12.980;2024-02-15T03:15:13;9.20;;;7.23;;
29200;SDS011;16244;51.956;12.980;2024-02-15T03:17:42;9.70;;;7.90;;
29200;SDS011;16244;51.956;12.980;2024-02-15T03:20:13;8.00;;;7.40;;
29200;SDS011;16244;51.956;12.980;2024-02-15T03:22:50;7.47;;;6.87;;
29200;SDS011;16244;51.956;12.980;2024-02-15T03:25:19;7.43;;;6.83;;
29200;SDS011;16244;51.956;12.980;2024-02-15T03:27:49;7.47;;;6.80;;
29200;SDS011;16244;51.956;12.980;2024-02-15T03:30:18;7.53;;;6.87;;
29200;SDS011;16244;51.956;12.980;2024-02-15T03:32:47;7.60;;;6.80;;
29200;SDS011;16244;51.956;12.980;2024-02-15T03:35:17;8.07;;;7.00;;
29200;SDS011;16244;51.956;12.980;2024-02-15T03:37:44;8.53;;;7.07;;
29200;SDS011;16244;51.956;12.980;2024-02-15T03:40:12;7.33;;;6.73;;
29200;SDS011;16244;51.956;12.980;2024-02-15T03:42:40;6.80;;;6.30;;
29200;SDS011;16244;51.956;12.980;2024-02-15T03:45:08;7.40;;;6.70;;
29200;SDS011;16244;51.956;12.980;2024-02-15T03:47:36;6.97;;;6.30;;
29200;SDS011;16244;51.956;12.980;2024-02-15T03:50:06;6.40;;;5.90;;
29200;SDS011;16244;51.956;12.980;2024-02-15T03:52:35;7.10;;;6.00;;
29200;SDS011;16244;51.956;12.980;2024-02-15T03:55:03;6.33;;;5.93;;
29200;SDS011;16244;51.956;12.980;2024-02-15T03:57:33;7.10;;;6.50;;
29200;SDS011;16244;51.956;12.980;2024-02-15T04:00:00;7.87;;;7.10;;
29200;SDS011;16244;51.956;12.980;2024-02-15T04:02:30;6.70;;;6.20;;
29200;SDS011;16244;51.956;12.980;2024-02-15T04:04:57;7.53;;;6.70;;
29200;SDS011;16244;51.956;12.980;2024-02-15T04:07:26;6.13;;;5.63;;
29200;SDS011;16244;51.956;12.980;2024-02-15T04:09:54;8.07;;;6.70;;
29200;SDS011;16244;51.956;12.980;2024-02-15T04:12:21;5.80;;;5.30;;
29200;SDS011;16244;51.956;12.980;2024-02-15T04:14:49;5.67;;;5.27;;
29200;SDS011;16244;51.956;12.980;2024-02-15T04:17:17;6.20;;;5.60;;
29200;SDS011;16244;51.956;12.980;2024-02-15T04:19:47;7.37;;;6.53;;
29200;SDS011;16244;51.956;12.980;2024-02-15T04:22:16;5.87;;;5.53;;
29200;SDS011;16244;51.956;12.980;2024-02-15T04:24:45;6.10;;;5.70;;
29200;SDS011;16244;51.956;12.980;2024-02-15T04:27:13;6.10;;;5.70;;
29200;SDS011;16244;51.956;12.980;2024-02-15T04:29:41;6.87;;;6.07;;
29200;SDS011;16244;51.956;12.980;2024-02-15T04:32:10;5.07;;;4.80;;
29200;SDS011;16244;51.956;12.980;2024-02-15T04:34:37;6.43;;;5.87;;
29200;SDS011;16244;51.956;12.980;2024-02-15T04:37:05;8.83;;;6.00;;
29200;SDS011;16244;51.956;12.980;2024-02-15T04:39:34;7.13;;;4.77;;
29200;SDS011;16244;51.956;12.980;2024-02-15T04:42:03;5.43;;;5.13;;
29200;SDS011;16244;51.956;12.980;2024-02-15T04:44:32;6.10;;;5.50;;
29200;SDS011;16244;51.956;12.980;2024-02-15T04:47:01;7.23;;;6.63;;
29200;SDS011;16244;51.956;12.980;2024-02-15T04:49:29;8.20;;;5.93;;
29200;SDS011;16244;51.956;12.980;2024-02-15T04:51:57;5.33;;;4.90;;
29200;SDS011;16244;51.956;12.980;2024-02-15T04:54:24;5.53;;;5.03;;
29200;SDS011;16244;51.956;12.980;2024-02-15T04:56:52;6.77;;;5.03;;
29200;SDS011;16244;51.956;12.980;2024-02-15T04:59:21;5.40;;;5.10;;
29200;SDS011;16244;51.956;12.980;2024-02-15T05:01:51;5.00;;;4.70;;
29200;SDS011;16244;51.956;12.980;2024-02-15T05:04:19;6.57;;;5.93;;
29200;SDS011;16244;51.956;12.980;2024-02-15T05:06:46;5.70;;;5.20;;
29200;SDS011;16244;51.956;12.980;2024-02-15T05:09:14;6.33;;;5.83;;
29200;SDS011;16244;51.956;12.980;2024-02-15T05:11:44;6.33;;;5.73;;
29200;SDS011;16244;51.956;12.980;2024-02-15T05:14:13;6.07;;;5.27;;
29200;SDS011;16244;51.956;12.980;2024-02-15T05:16:46;5.50;;;5.10;;
29200;SDS011;16244;51.956;12.980;2024-02-15T05:19:14;5.77;;;5.30;;
29200;SDS011;16244;51.956;12.980;2024-02-15T05:21:42;8.07;;;6.37;;
29200;SDS011;16244;51.956;12.980;2024-02-15T05:24:12;7.10;;;6.60;;
29200;SDS011;16244;51.956;12.980;2024-02-15T05:26:40;6.47;;;5.90;;
29200;SDS011;16244;51.956;12.980;2024-02-15T05:29:08;7.07;;;6.53;;
29200;SDS011;16244;51.956;12.980;2024-02-15T05:31:37;5.60;;;5.23;;
29200;SDS011;16244;51.956;12.980;2024-02-15T05:34:07;5.80;;;5.40;;
29200;SDS011;16244;51.956;12.980;2024-02-15T05:36:37;5.10;;;4.80;;
29200;SDS011;16244;51.956;12.980;2024-02-15T05:39:05;5.10;;;4.77;;
29200;SDS011;16244;51.956;12.980;2024-02-15T05:41:33;5.63;;;5.23;;
29200;SDS011;16244;51.956;12.980;2024-02-15T05:44:00;5.43;;;5.03;;
29200;SDS011;16244;51.956;12.980;2024-02-15T05:46:30;6.50;;;4.60;;
29200;SDS011;16244;51.956;12.980;2024-02-15T05:48:58;6.00;;;5.50;;
29200;SDS011;16244;51.956;12.980;2024-02-15T05:51:29;8.70;;;5.13;;
29200;SDS011;16244;51.956;12.980;2024-02-15T05:53:57;4.97;;;4.77;;
29200;SDS011;16244;51.956;12.980;2024-02-15T05:56:25;5.00;;;4.80;;
29200;SDS011;16244;51.956;12.980;2024-02-15T05:58:55;4.50;;;4.30;;
29200;SDS011;16244;51.956;12.980;2024-02-15T06:01:22;5.17;;;4.87;;
29200;SDS011;16244;51.956;12.980;2024-02-15T06:03:50;4.97;;;4.57;;
29200;SDS011;16244;51.956;12.980;2024-02-15T06:06:20;4.40;;;4.20;;
29200;SDS011;16244;51.956;12.980;2024-02-15T06:08:50;5.07;;;4.80;;
29200;SDS011;16244;51.956;12.980;2024-02-15T06:11:18;7.90;;;4.97;;
29200;SDS011;16244;51.956;12.980;2024-02-15T06:13:47;8.13;;;4.77;;
29200;SDS011;16244;51.956;12.980;2024-02-15T06:16:14;5.07;;;4.70;;
29200;SDS011;16244;51.956;12.980;2024-02-15T06:18:41;5.90;;;4.67;;
29200;SDS011;16244;51.956;12.980;2024-02-15T06:21:09;6.40;;;6.00;;
29200;SDS011;16244;51.956;12.980;2024-02-15T06:23:37;6.13;;;5.77;;
29200;SDS011;16244;51.956;12.980;2024-02-15T06:26:05;5.20;;;4.93;;
29200;SDS011;16244;51.956;12.980;2024-02-15T06:28:33;4.90;;;4.50;;
29200;SDS011;16244;51.956;12.980;2024-02-15T06:31:18;5.50;;;5.10;;
29200;SDS011;16244;51.956;12.980;2024-02-15T06:34:03;5.77;;;5.23;;
29200;SDS011;16244;51.956;12.980;2024-02-15T06:36:49;6.37;;;5.73;;
29200;SDS011;16244;51.956;12.980;2024-02-15T06:39:37;7.03;;;5.40;;
29200;SDS011;16244;51.956;12.980;2024-02-15T06:42:13;10.03;;;6.20;;
29200;SDS011;16244;51.956;12.980;2024-02-15T06:44:41;5.37;;;5.10;;
29200;SDS011;16244;51.956;12.980;2024-02-15T06:47:09;5.03;;;4.73;;
29200;SDS011;16244;51.956;12.980;2024-02-15T06:49:37;4.93;;;4.63;;
29200;SDS011;16244;51.956;12.980;2024-02-15T06:52:06;5.03;;;4.87;;
29200;SDS011;16244;51.956;12.980;2024-02-15T06:54:34;6.37;;;5.80;;
29200;SDS011;16244;51.956;12.980;2024-02-15T06:57:02;5.90;;;5.27;;
29200;SDS011;16244;51.956;12.980;2024-02-15T06:59:32;5.30;;;5.00;;
29200;SDS011;16244;51.956;12.980;2024-02-15T07:02:00;4.83;;;4.63;;
29200;SDS011;16244;51.956;12.980;2024-02-15T07:04:30;5.97;;;5.57;;
29200;SDS011;16244;51.956;12.980;2024-02-15T07:06:58;5.03;;;4.60;;
29200;SDS011;16244;51.956;12.980;2024-02-15T07:09:27;5.57;;;5.20;;
29200;SDS011;16244;51.956;12.980;2024-02-15T07:11:56;4.77;;;4.47;;
29200;SDS011;16244;51.956;12.980;2024-02-15T07:14:24;5.20;;;4.90;;
29200;SDS011;16244;51.956;12.980;2024-02-15T07:16:55;7.10;;;5.53;;
29200;SDS011;16244;51.956;12.980;2024-02-15T07:19:24;6.73;;;5.00;;
29200;SDS011;16244;51.956;12.980;2024-02-15T07:21:52;6.50;;;6.03;;
29200;SDS011;16244;51.956;12.980;2024-02-15T07:24:22;4.23;;;4.13;;
29200;SDS011;16244;51.956;12.980;2024-02-15T07:26:52;4.97;;;4.67;;
29200;SDS011;16244;51.956;12.980;2024-02-15T07:29:21;3.33;;;3.23;;
29200;SDS011;16244;51.956;12.980;2024-02-15T07:31:49;4.13;;;3.93;;
29200;SDS011;16244;51.956;12.980;2024-02-15T07:34:18;4.60;;;4.30;;
29200;SDS011;16244;51.956;12.980;2024-02-15T07:36:45;4.57;;;4.27;;
29200;SDS011;16244;51.956;12.980;2024-02-15T07:39:13;5.03;;;4.83;;
29200;SDS011;16244;51.956;12.980;2024-02-15T07:41:48;4.60;;;4.40;;
29200;SDS011;16244;51.956;12.980;2024-02-15T07:44:16;4.00;;;3.90;;
29200;SDS011;16244;51.956;12.980;2024-02-15T07:46:45;5.27;;;4.80;;
29200;SDS011;16244;51.956;12.980;2024-02-15T07:49:13;4.47;;;4.20;;
29200;SDS011;16244;51.956;12.980;2024-02-15T07:51:43;5.47;;;4.97;;
29200;SDS011;16244;51.956;12.980;2024-02-15T07:54:11;4.70;;;4.30;;
29200;SDS011;16244;51.956;12.980;2024-02-15T07:56:39;5.10;;;4.77;;
29200;SDS011;16244;51.956;12.980;2024-02-15T07:59:06;4.37;;;4.23;;
29200;SDS011;16244;51.956;12.980;2024-02-15T08:01:34;5.00;;;4.70;;
29200;SDS011;16244;51.956;12.980;2024-02-15T08:04:01;3.57;;;3.47;;
29200;SDS011;16244;51.956;12.980;2024-02-15T08:06:29;4.87;;;4.57;;
29200;SDS011;16244;51.956;12.980;2024-02-15T08:09:00;6.83;;;5.10;;
29200;SDS011;16244;51.956;12.980;2024-02-15T08:11:28;4.60;;;4.30;;
29200;SDS011;16244;51.956;12.980;2024-02-15T08:13:55;5.00;;;4.73;;
29200;SDS011;16244;51.956;12.980;2024-02-15T08:16:25;4.73;;;4.50;;
29200;SDS011;16244;51.956;12.980;2024-02-15T08:18:53;4.67;;;4.33;;
29200;SDS011;16244;51.956;12.980;2024-02-15T08:21:24;4.27;;;4.07;;
29200;SDS011;16244;51.956;12.980;2024-02-15T08:23:53;6.70;;;4.80;;
29200;SDS011;16244;51.956;12.980;2024-02-15T08:26:22;5.37;;;5.07;;
29200;SDS011;16244;51.956;12.980;2024-02-15T08:28:50;6.13;;;5.03;;
29200;SDS011;16244;51.956;12.980;2024-02-15T08:31:18;5.60;;;5.30;;
29200;SDS011;16244;51.956;12.980;2024-02-15T08:33:48;6.47;;;5.87;;
29200;SDS011;16244;51.956;12.980;2024-02-15T08:36:16;5.57;;;5.27;;
29200;SDS011;16244;51.956;12.980;2024-02-15T08:38:44;5.37;;;4.97;;
29200;SDS011;16244;51.956;12.980;2024-02-15T08:41:12;5.00;;;4.60;;
29200;SDS011;16244;51.956;12.980;2024-02-15T08:43:41;4.10;;;3.90;;
29200;SDS011;16244;51.956;12.980;2024-02-15T08:46:09;3.93;;;3.73;;
29200;SDS011;16244;51.956;12.980;2024-02-15T08:48:37;3.60;;;3.50;;
29200;SDS011;16244;51.956;12.980;2024-02-15T08:51:04;3.40;;;3.30;;
29200;SDS011;16244;51.956;12.980;2024-02-15T08:53:34;3.97;;;3.87;;
29200;SDS011;16244;51.956;12.980;2024-02-15T08:56:03;3.40;;;3.20;;
29200;SDS011;16244;51.956;12.980;2024-02-15T08:58:32;3.70;;;3.57;;
29200;SDS011;16244;51.956;12.980;2024-02-15T09:01:02;3.60;;;3.37;;
29200;SDS011;16244;51.956;12.980;2024-02-15T09:03:30;2.83;;;2.73;;
29200;SDS011;16244;51.956;12.980;2024-02-15T09:05:57;10.33;;;3.30;;
29200;SDS011;16244;51.956;12.980;2024-02-15T09:08:28;4.10;;;3.90;;
29200;SDS011;16244;51.956;12.980;2024-02-15T09:10:56;4.37;;;4.00;;
29200;SDS011;16244;51.956;12.980;2024-02-15T09:13:24;4.60;;;4.30;;
29200;SDS011;16244;51.956;12.980;2024-02-15T09:15:51;2.97;;;2.87;;
29200;SDS011;16244;51.956;12.980;2024-02-15T09:18:20;3.10;;;3.10;;
29200;SDS011;16244;51.956;12.980;2024-02-15T09:20:48;3.27;;;3.17;;
29200;SDS011;16244;51.956;12.980;2024-02-15T09:23:21;3.00;;;2.70;;
29200;SDS011;16244;51.956;12.980;2024-02-15T09:25:49;2.73;;;2.63;;
29200;SDS011;16244;51.956;12.980;2024-02-15T09:28:17;2.83;;;2.73;;
29200;SDS011;16244;51.956;12.980;2024-02-15T09:30:48;2.27;;;2.17;;
29200;SDS011;16244;51.956;12.980;2024-02-15T09:33:18;3.23;;;3.07;;
29200;SDS011;16244;51.956;12.980;2024-02-15T09:35:47;2.33;;;2.33;;
29200;SDS011;16244;51.956;12.980;2024-02-15T09:38:15;2.40;;;2.40;;
29200;SDS011;16244;51.956;12.980;2024-02-15T09:40:45;2.70;;;2.60;;
29200;SDS011;16244;51.956;12.980;2024-02-15T09:43:16;2.63;;;2.53;;
29200;SDS011;16244;51.956;12.980;2024-02-15T09:45:43;2.53;;;2.43;;
29200;SDS011;16244;51.956;12.980;2024-02-15T09:48:11;3.30;;;3.10;;
29200;SDS011;16244;51.956;12.980;2024-02-15T09:50:41;2.60;;;2.50;;
29200;SDS011;16244;51.956;12.980;2024-02-15T09:53:12;4.10;;;3.90;;
29200;SDS011;16244;51.956;12.980;2024-02-15T09:55:41;7.20;;;4.20;;
29200;SDS011;16244;51.956;12.980;2024-02-15T09:58:09;10.43;;;5.70;;
29200;SDS011;16244;51.956;12.980;2024-02-15T10:00:38;19.00;;;6.10;;
29200;SDS011;16244;51.956;12.980;2024-02-15T10:03:06;4.73;;;4.27;;
29200;SDS011;16244;51.956;12.980;2024-02-15T10:05:34;6.00;;;5.07;;
29200;SDS011;16244;51.956;12.980;2024-02-15T10:08:03;3.80;;;3.60;;
29200;SDS011;16244;51.956;12.980;2024-02-15T10:10:33;12.77;;;6.10;;
29200;SDS011;16244;51.956;12.980;2024-02-15T10:13:01;8.50;;;5.40;;
29200;SDS011;16244;51.956;12.980;2024-02-15T10:15:30;14.73;;;8.87;;
29200;SDS011;16244;51.956;12.980;2024-02-15T10:18:00;6.73;;;5.13;;
29200;SDS011;16244;51.956;12.980;2024-02-15T10:20:29;4.67;;;4.27;;
29200;SDS011;16244;51.956;12.980;2024-02-15T10:23:11;3.30;;;3.20;;
29200;SDS011;16244;51.956;12.980;2024-02-15T10:25:40;2.63;;;2.53;;
29200;SDS011;16244;51.956;12.980;2024-02-15T10:28:08;3.63;;;1.90;;
29200;SDS011;16244;51.956;12.980;2024-02-15T10:30:36;2.40;;;2.40;;
29200;SDS011;16244;51.956;12.980;2024-02-15T10:33:05;3.27;;;2.67;;
29200;SDS011;16244;51.956;12.980;2024-02-15T10:35:34;2.90;;;2.80;;
29200;SDS011;16244;51.956;12.980;2024-02-15T10:38:05;2.60;;;2.37;;
29200;SDS011;16244;51.956;12.980;2024-02-15T10:40:36;2.70;;;2.60;;
29200;SDS011;16244;51.956;12.980;2024-02-15T10:43:04;3.17;;;2.70;;
29200;SDS011;16244;51.956;12.980;2024-02-15T10:45:32;2.13;;;2.03;;
29200;SDS011;16244;51.956;12.980;2024-02-15T10:48:02;1.83;;;1.73;;
29200;SDS011;16244;51.956;12.980;2024-02-15T10:50:32;2.40;;;2.30;;
29200;SDS011;16244;51.956;12.980;2024-02-15T10:53:00;4.60;;;2.10;;
29200;SDS011;16244;51.956;12.980;2024-02-15T10:55:37;1.83;;;1.83;;
29200;SDS011;16244;51.956;12.980;2024-02-15T10:58:07;2.47;;;2.47;;
29200;SDS011;16244;51.956;12.980;2024-02-15T11:00:35;3.23;;;1.90;;
29200;SDS011;16244;51.956;12.980;2024-02-15T11:03:29;1.93;;;1.93;;
29200;SDS011;16244;51.956;12.980;2024-02-15T11:06:09;1.87;;;1.87;;
29200;SDS011;16244;51.956;12.980;2024-02-15T11:08:38;1.83;;;1.83;;
29200;SDS011;16244;51.956;12.980;2024-02-15T11:11:06;1.87;;;1.87;;
29200;SDS011;16244;51.956;12.980;2024-02-15T11:13:36;10.40;;;2.20;;
29200;SDS011;16244;51.956;12.980;2024-02-15T11:16:05;2.23;;;2.03;;
29200;SDS011;16244;51.956;12.980;2024-02-15T11:18:44;1.87;;;1.80;;
29200;SDS011;16244;51.956;12.980;2024-02-15T11:21:15;1.93;;;1.93;;
29200;SDS011;16244;51.956;12.980;2024-02-15T11:23:43;1.93;;;1.83;;
29200;SDS011;16244;51.956;12.980;2024-02-15T11:35:21;1.63;;;1.57;;
29200;SDS011;16244;51.956;12.980;2024-02-15T11:37:53;1.77;;;1.73;;
29200;SDS011;16244;51.956;12.980;2024-02-15T11:43:47;2.20;;;2.10;;
29200;SDS011;16244;51.956;12.980;2024-02-15T11:46:23;2.70;;;1.90;;
29200;SDS011;16244;51.956;12.980;2024-02-15T11:48:53;3.47;;;2.03;;
29200;SDS011;16244;51.956;12.980;2024-02-15T11:51:27;2.07;;;1.97;;
29200;SDS011;16244;51.956;12.980;2024-02-15T11:54:08;1.57;;;1.57;;
29200;SDS011;16244;51.956;12.980;2024-02-15T11:56:52;3.30;;;1.83;;
29200;SDS011;16244;51.956;12.980;2024-02-15T11:59:39;1.73;;;1.63;;
29200;SDS011;16244;51.956;12.980;2024-02-15T12:02:25;4.67;;;1.93;;
29200;SDS011;16244;51.956;12.980;2024-02-15T12:05:11;1.67;;;1.67;;
29200;SDS011;16244;51.956;12.980;2024-02-15T12:08:11;7.37;;;4.60;;
29200;SDS011;16244;51.956;12.980;2024-02-15T12:10:57;3.63;;;3.00;;
29200;SDS011;16244;51.956;12.980;2024-02-15T12:13:42;4.47;;;2.20;;
29200;SDS011;16244;51.956;12.980;2024-02-15T12:16:32;1.67;;;1.67;;
29200;SDS011;16244;51.956;12.980;2024-02-15T12:19:18;1.60;;;1.50;;
29200;SDS011;16244;51.956;12.980;2024-02-15T12:21:47;1.77;;;1.67;;
29200;SDS011;16244;51.956;12.980;2024-02-15T12:24:17;1.77;;;1.70;;
29200;SDS011;16244;51.956;12.980;2024-02-15T12:26:51;2.60;;;2.07;;
29200;SDS011;16244;51.956;12.980;2024-02-15T12:29:18;1.50;;;1.40;;
29200;SDS011;16244;51.956;12.980;2024-02-15T12:31:46;3.63;;;1.57;;
29200;SDS011;16244;51.956;12.980;2024-02-15T12:34:15;2.40;;;2.20;;
29200;SDS011;16244;51.956;12.980;2024-02-15T12:36:47;1.87;;;1.87;;
29200;SDS011;16244;51.956;12.980;2024-02-15T12:39:15;1.80;;;1.80;;
29200;SDS011;16244;51.956;12.980;2024-02-15T12:41:53;2.17;;;2.07;;
29200;SDS011;16244;51.956;12.980;2024-02-15T12:44:21;2.10;;;2.00;;
29200;SDS011;16244;51.956;12.980;2024-02-15T12:46:53;1.50;;;1.50;;
29200;SDS011;16244;51.956;12.980;2024-02-15T12:49:29;2.10;;;2.10;;
29200;SDS011;16244;51.956;12.980;2024-02-15T12:55:16;2.33;;;1.50;;
29200;SDS011;16244;51.956;12.980;2024-02-15T12:57:46;2.50;;;1.50;;
29200;SDS011;16244;51.956;12.980;2024-02-15T13:00:17;2.00;;;1.87;;
29200;SDS011;16244;51.956;12.980;2024-02-15T13:02:47;2.90;;;1.80;;
29200;SDS011;16244;51.956;12.980;2024-02-15T13:05:15;3.27;;;3.13;;
29200;SDS011;16244;51.956;12.980;2024-02-15T13:07:45;2.03;;;1.83;;
29200;SDS011;16244;51.956;12.980;2024-02-15T13:10:13;2.67;;;1.53;;
29200;SDS011;16244;51.956;12.980;2024-02-15T13:12:43;2.40;;;1.60;;
29200;SDS011;16244;51.956;12.980;2024-02-15T13:15:39;4.33;;;4.00;;
29200;SDS011;16244;51.956;12.980;2024-02-15T13:18:09;15.30;;;8.23;;
29200;SDS011;16244;51.956;12.980;2024-02-15T13:20:37;3.60;;;3.30;;
29200;SDS011;16244;51.956;12.980;2024-02-15T13:23:05;1.73;;;1.63;;
29200;SDS011;16244;51.956;12.980;2024-02-15T13:25:42;2.33;;;1.40;;
29200;SDS011;16244;51.956;12.980;2024-02-15T13:28:10;2.20;;;1.40;;
29200;SDS011;16244;51.956;12.980;2024-02-15T13:30:38;2.70;;;2.00;;
29200;SDS011;16244;51.956;12.980;2024-02-15T13:33:08;2.10;;;2.00;;
29200;SDS011;16244;51.956;12.980;2024-02-15T13:35:36;2.10;;;1.10;;
29200;SDS011;16244;51.956;12.980;2024-02-15T13:38:03;1.63;;;1.50;;
29200;SDS011;16244;51.956;12.980;2024-02-15T13:40:31;1.63;;;1.53;;
29200;SDS011;16244;51.956;12.980;2024-02-15T13:43:00;2.20;;;1.40;;
29200;SDS011;16244;51.956;12.980;2024-02-15T13:45:30;2.93;;;1.07;;
29200;SDS011;16244;51.956;12.980;2024-02-15T13:47:59;1.03;;;1.03;;
29200;SDS011;16244;51.956;12.980;2024-02-15T13:50:28;2.07;;;1.57;;
29200;SDS011;16244;51.956;12.980;2024-02-15T13:52:56;0.93;;;0.90;;
29200;SDS011;16244;51.956;12.980;2024-02-15T13:55:24;0.93;;;0.93;;
29200;SDS011;16244;51.956;12.980;2024-02-15T13:57:53;1.00;;;1.00;;
29200;SDS011;16244;51.956;12.980;2024-02-15T14:00:24;1.27;;;1.27;;
29200;SDS011;16244;51.956;12.980;2024-02-15T14:02:56;2.30;;;1.33;;
29200;SDS011;16244;51.956;12.980;2024-02-15T14:05:25;0.60;;;0.60;;
29200;SDS011;16244;51.956;12.980;2024-02-15T14:07:54;0.80;;;0.80;;
29200;SDS011;16244;51.956;12.980;2024-02-15T14:10:23;0.80;;;0.80;;
29200;SDS011;16244;51.956;12.980;2024-02-15T14:12:52;0.60;;;0.60;;
29200;SDS011;16244;51.956;12.980;2024-02-15T14:15:25;2.77;;;0.70;;
29200;SDS011;16244;51.956;12.980;2024-02-15T14:17:53;0.73;;;0.73;;
29200;SDS011;16244;51.956;12.980;2024-02-15T14:20:21;0.80;;;0.70;;
29200;SDS011;16244;51.956;12.980;2024-02-15T14:22:50;1.40;;;1.10;;
29200;SDS011;16244;51.956;12.980;2024-02-15T14:25:21;1.40;;;0.70;;
29200;SDS011;16244;51.956;12.980;2024-02-15T14:27:49;0.60;;;0.60;;
29200;SDS011;16244;51.956;12.980;2024-02-15T14:30:17;0.80;;;0.80;;
29200;SDS011;16244;51.956;12.980;2024-02-15T14:33:04;2.70;;;0.80;;
29200;SDS011;16244;51.956;12.980;2024-02-15T14:35:37;0.93;;;0.77;;
29200;SDS011;16244;51.956;12.980;2024-02-15T14:38:06;0.47;;;0.47;;
29200;SDS011;16244;51.956;12.980;2024-02-15T14:40:36;0.83;;;0.70;;
29200;SDS011;16244;51.956;12.980;2024-02-15T14:43:06;1.33;;;0.70;;
29200;SDS011;16244;51.956;12.980;2024-02-15T14:45:35;0.60;;;0.60;;
29200;SDS011;16244;51.956;12.980;2024-02-15T14:48:05;0.70;;;0.70;;
29200;SDS011;16244;51.956;12.980;2024-02-15T14:50:34;0.70;;;0.70;;
29200;SDS011;16244;51.956;12.980;2024-02-15T14:53:02;0.70;;;0.70;;
29200;SDS011;16244;51.956;12.980;2024-02-15T14:55:29;0.60;;;0.60;;
29200;SDS011;16244;51.956;12.980;2024-02-15T14:57:57;0.70;;;0.70;;
29200;SDS011;16244;51.956;12.980;2024-02-15T15:00:24;0.77;;;0.70;;
29200;SDS011;16244;51.956;12.980;2024-02-15T15:02:53;1.23;;;0.80;;
29200;SDS011;16244;51.956;12.980;2024-02-15T15:05:23;4.63;;;0.70;;